Ashland, ME (04737)

2:33 PM EDT on July 25, 2014 (GMT -0400)
Northern Maine Regional At Presque Isle (KPQI) Elev 479 ft | 46.69 °N, 68.04 °W | Change Station

Current weather conditions updated 18 minutes ago

Scattered Clouds
Scattered Clouds
79 °F
Feels Like 79 °F
N
8
Wind Variable Wind from West

Today is forecast to be Much Warmer than yesterday.

Today
High -- | Low -- °F
--% Chance of Precip.
Yesterday
High -- | Low -- °F
Precip. -- in
5:10 AM 8:18 PM
Waning Crescent, 1% visible
Pressure 29.81 in
Visibility 10.0 miles
Clouds Scattered Clouds 7500 ft
Dew Point 45 °F
Humidity 30%
Rainfall 0.00 in
Snow Depth Not available.
UV 7 out of 12
Pollen 5.40 out of 12
Ozone Good
PM2.5 Good
Flu Activity Not available.
METAR KPQI 251815Z AUTO 28007KT 260V320 10SM SCT075 26/07 A2981 RMK AO1

More Conditions Fewer Conditions

Pressure 29.81 in
Visibility 10.0 miles
Clouds Scattered Clouds 7500 ft
Dew Point 45 °F
Humidity 30%
Rainfall 0.00 in
Snow Depth Not available.
UV 7 out of 12
Pollen 5.40 out of 12
Ozone Good
PM2.5 Good
Flu Activity Not available.
METAR KPQI 251815Z AUTO 28007KT 260V320 10SM SCT075 26/07 A2981 RMK AO1

More Conditions Fewer Conditions

10-Day Weather Forecast

Almanac

Astronomy

Jul. 25, 2014 Rise Set
Actual Time 5:10 AM EDT 8:18 PM EDT
Civil Twilight 4:34 AM EDT 8:54 PM EDT
Nautical Twilight 3:47 AM EDT 9:40 PM EDT
Astronomical Twilight 2:49 AM EDT 10:38 PM EDT
Moon 4:09 AM EDT 7:09 PM EDT
Length of Visible Light 16h 20m
Length of Day
15h 07m
Tomorrow will be 2m 19s shorter.
Waning Crescent, 1% of the Moon is Illuminated
Today
Waning Crescent
Jul 26
New
Aug 3
First Quarter
Aug 10
Full
Aug 17
Last Quarter

Today's Extremes

State Highs State Lows

Community

WunderPhotos

Upload Photos

1,737,373 photos uploaded!

Nearby

Air Quality

  Air Quality AQ Index Pollutant
Yesterday Good
OZONE
Yesterday Good
PM2.5
Current Good
PM2.5
Current Good
OZONE
Friday Good
OZONE
Friday Good
PM2.5
Saturday Good
OZONE
Saturday Good
PM2.5

Snow Depth

Station Depth Elevation
No new snow has been reported.

Earthquake Activity

City Distance Mag. Time & Date
No recent earthquake activity has been reported nearby.
Minimum magnitude displayed is 2.5.

Coastal Water Temperatures

Place Temperature
No Stations Reporting

Nearby Weather Stations

There are no personal weather stations in this area.